gordon.dewis.ca - Random musings from Gordon

Subscribe

Charming weather we’re having, eh?

January 30, 2008 @ 08:01 By: gordon Category: Weather

TAF CYOW 301139Z 301212 07008KT 3/4SM -RA BR OVC002
TEMPO 1213 5SM BR OVC008
FM1300Z 23015G30KT 6SM -RA BR OVC020
TEMPO 1315 3SM -RASN BR OVC008
FM1500Z 24020G35KT P6SM OVC030
TEMPO 1517 2SM -SN BLSN OVC020
FM1700Z 24020G35KT P6SM BKN030
TEMPO 1721 6SM BLSN
BECMG 2224 24015G30KT
FM0500Z 24012KT P6SM SCT040
RMK NXT FCST BY 15Z

Translation: Stay in bed. (I know I wish I could!)

Basically, the forecast is saying it’s going to be very windy throughout much of the day with rain, rain and snow, snow and blowing snow at various points during the day. Freezing rain isn’t listed (in fact, the freezing rain warning ended a little over an hour ago), but as of the time of this post the civil forecast still has a flash freezing warning in effect, so there’s a chance things could get quite messy.

I imagine the afternoon rush hour is going to be a lot of fun.

Leave a Reply

*